sensor_id;sensor_type;location;lat;lon;timestamp;pressure;altitude;pressure_sealevel;temperature;humidity
39267;BME280;24967;51.154;13.812;2023-05-23T00:01:51;99060.06;;;18.45;62.05
39267;BME280;24967;51.154;13.812;2023-05-23T00:04:22;99068.31;;;18.57;61.08
39267;BME280;24967;51.154;13.812;2023-05-23T00:06:51;99059.78;;;18.60;61.00
39267;BME280;24967;51.154;13.812;2023-05-23T00:09:18;99066.41;;;18.64;60.87
39267;BME280;24967;51.154;13.812;2023-05-23T00:11:46;99067.63;;;18.68;61.10
39267;BME280;24967;51.154;13.812;2023-05-23T00:14:29;99064.44;;;18.46;61.29
39267;BME280;24967;51.154;13.812;2023-05-23T00:17:00;99063.38;;;18.47;61.60
39267;BME280;24967;51.154;13.812;2023-05-23T00:19:32;99062.09;;;18.56;61.54
39267;BME280;24967;51.154;13.812;2023-05-23T00:22:15;99052.94;;;18.64;60.69
39267;BME280;24967;51.154;13.812;2023-05-23T00:24:44;99058.91;;;18.79;60.79
39267;BME280;24967;51.154;13.812;2023-05-23T00:27:13;99061.19;;;18.75;60.89
39267;BME280;24967;51.154;13.812;2023-05-23T00:29:42;99054.78;;;18.76;61.00
39267;BME280;24967;51.154;13.812;2023-05-23T00:32:23;99061.72;;;18.91;60.91
39267;BME280;24967;51.154;13.812;2023-05-23T00:34:53;99062.47;;;18.73;62.14
39267;BME280;24967;51.154;13.812;2023-05-23T00:37:34;99068.84;;;18.79;62.26
39267;BME280;24967;51.154;13.812;2023-05-23T00:40:04;99067.84;;;18.73;63.37
39267;BME280;24967;51.154;13.812;2023-05-23T00:42:39;99077.16;;;19.09;62.93
39267;BME280;24967;51.154;13.812;2023-05-23T00:45:21;99089.31;;;18.86;64.86
39267;BME280;24967;51.154;13.812;2023-05-23T00:47:54;99100.56;;;18.76;65.68
39267;BME280;24967;51.154;13.812;2023-05-23T00:50:22;99105.88;;;18.90;66.42
39267;BME280;24967;51.154;13.812;2023-05-23T00:53:09;99112.34;;;18.75;66.95
39267;BME280;24967;51.154;13.812;2023-05-23T00:55:41;99105.13;;;18.76;67.77
39267;BME280;24967;51.154;13.812;2023-05-23T00:58:13;99108.44;;;18.65;70.49
39267;BME280;24967;51.154;13.812;2023-05-23T01:00:46;99102.44;;;18.63;72.63
39267;BME280;24967;51.154;13.812;2023-05-23T01:03:18;99095.03;;;18.58;73.12
39267;BME280;24967;51.154;13.812;2023-05-23T01:05:56;99081.09;;;18.68;72.49
39267;BME280;24967;51.154;13.812;2023-05-23T01:08:32;99076.72;;;18.67;73.21
39267;BME280;24967;51.154;13.812;2023-05-23T01:11:11;99073.69;;;19.02;73.78
39267;BME280;24967;51.154;13.812;2023-05-23T01:13:58;99068.13;;;18.96;75.52
39267;BME280;24967;51.154;13.812;2023-05-23T01:16:35;99071.25;;;18.93;75.43
39267;BME280;24967;51.154;13.812;2023-05-23T01:19:30;99064.13;;;18.74;75.72
39267;BME280;24967;51.154;13.812;2023-05-23T01:22:20;99059.59;;;18.54;77.81
39267;BME280;24967;51.154;13.812;2023-05-23T01:24:54;99040.81;;;18.48;78.37
39267;BME280;24967;51.154;13.812;2023-05-23T01:27:39;99037.06;;;18.56;77.67
39267;BME280;24967;51.154;13.812;2023-05-23T01:30:09;99044.22;;;18.68;77.05
39267;BME280;24967;51.154;13.812;2023-05-23T01:32:42;99049.78;;;18.80;76.37
39267;BME280;24967;51.154;13.812;2023-05-23T01:35:16;99046.91;;;18.75;76.85
39267;BME280;24967;51.154;13.812;2023-05-23T01:37:49;99072.16;;;18.81;76.45
39267;BME280;24967;51.154;13.812;2023-05-23T01:40:26;99058.69;;;18.81;77.46
39267;BME280;24967;51.154;13.812;2023-05-23T01:42:58;99062.63;;;18.78;77.54
39267;BME280;24967;51.154;13.812;2023-05-23T01:45:29;99074.66;;;18.82;77.99
39267;BME280;24967;51.154;13.812;2023-05-23T01:48:11;99079.03;;;18.70;79.49
39267;BME280;24967;51.154;13.812;2023-05-23T01:50:39;99078.63;;;18.60;81.45
39267;BME280;24967;51.154;13.812;2023-05-23T01:53:11;99085.66;;;18.61;82.65
39267;BME280;24967;51.154;13.812;2023-05-23T01:55:44;99084.13;;;18.33;84.64
39267;BME280;24967;51.154;13.812;2023-05-23T01:58:15;99088.53;;;18.14;86.56
39267;BME280;24967;51.154;13.812;2023-05-23T02:00:50;99088.72;;;18.19;86.49
39267;BME280;24967;51.154;13.812;2023-05-23T02:03:22;99090.34;;;18.27;85.55
39267;BME280;24967;51.154;13.812;2023-05-23T02:05:55;99096.91;;;18.44;84.20
39267;BME280;24967;51.154;13.812;2023-05-23T02:08:35;99098.59;;;18.39;84.14
39267;BME280;24967;51.154;13.812;2023-05-23T02:11:16;99102.47;;;18.56;84.09
39267;BME280;24967;51.154;13.812;2023-05-23T02:14:03;99095.06;;;18.38;84.90
39267;BME280;24967;51.154;13.812;2023-05-23T02:16:31;99082.41;;;18.45;84.48
39267;BME280;24967;51.154;13.812;2023-05-23T02:19:04;99079.97;;;18.37;84.24
39267;BME280;24967;51.154;13.812;2023-05-23T02:21:37;99068.41;;;18.37;84.02
39267;BME280;24967;51.154;13.812;2023-05-23T02:24:06;99061.97;;;18.38;83.59
39267;BME280;24967;51.154;13.812;2023-05-23T02:26:52;99060.91;;;18.39;83.15
39267;BME280;24967;51.154;13.812;2023-05-23T02:29:28;99051.09;;;18.58;81.88
39267;BME280;24967;51.154;13.812;2023-05-23T02:32:02;99046.75;;;18.57;81.69
39267;BME280;24967;51.154;13.812;2023-05-23T02:34:32;99042.66;;;18.47;81.69
39267;BME280;24967;51.154;13.812;2023-05-23T02:36:58;99044.50;;;18.53;81.49
39267;BME280;24967;51.154;13.812;2023-05-23T02:39:42;99036.34;;;18.67;80.68
39267;BME280;24967;51.154;13.812;2023-05-23T02:42:11;99038.72;;;18.50;81.51
39267;BME280;24967;51.154;13.812;2023-05-23T02:44:41;99032.28;;;18.51;81.49
39267;BME280;24967;51.154;13.812;2023-05-23T02:47:16;99026.47;;;18.54;81.29
39267;BME280;24967;51.154;13.812;2023-05-23T02:49:42;99021.50;;;18.58;80.93
39267;BME280;24967;51.154;13.812;2023-05-23T02:52:20;99021.69;;;18.63;80.69
39267;BME280;24967;51.154;13.812;2023-05-23T02:54:50;99030.56;;;18.70;80.09
39267;BME280;24967;51.154;13.812;2023-05-23T02:57:30;99028.06;;;18.68;79.89
39267;BME280;24967;51.154;13.812;2023-05-23T02:59:59;99011.72;;;18.70;79.43
39267;BME280;24967;51.154;13.812;2023-05-23T03:02:26;98996.38;;;18.70;79.35
39267;BME280;24967;51.154;13.812;2023-05-23T03:04:58;98994.94;;;18.68;79.43
39267;BME280;24967;51.154;13.812;2023-05-23T03:07:25;98991.88;;;18.64;79.40
39267;BME280;24967;51.154;13.812;2023-05-23T03:10:01;98985.19;;;18.67;79.40
39267;BME280;24967;51.154;13.812;2023-05-23T03:12:31;98974.28;;;18.62;79.63
39267;BME280;24967;51.154;13.812;2023-05-23T03:15:03;98975.28;;;18.67;79.34
39267;BME280;24967;51.154;13.812;2023-05-23T03:17:48;98972.59;;;18.61;79.69
39267;BME280;24967;51.154;13.812;2023-05-23T03:20:23;98983.78;;;18.64;79.36
39267;BME280;24967;51.154;13.812;2023-05-23T03:23:01;98977.75;;;18.69;79.01
39267;BME280;24967;51.154;13.812;2023-05-23T03:25:34;98983.34;;;18.74;78.86
39267;BME280;24967;51.154;13.812;2023-05-23T03:28:08;98976.72;;;18.76;78.20
39267;BME280;24967;51.154;13.812;2023-05-23T03:30:53;98975.06;;;18.69;78.83
39267;BME280;24967;51.154;13.812;2023-05-23T03:33:26;98976.31;;;18.73;78.63
39267;BME280;24967;51.154;13.812;2023-05-23T03:36:01;98974.44;;;18.67;79.16
39267;BME280;24967;51.154;13.812;2023-05-23T03:38:40;98987.50;;;18.70;78.94
39267;BME280;24967;51.154;13.812;2023-05-23T03:41:12;98974.66;;;18.65;79.44
39267;BME280;24967;51.154;13.812;2023-05-23T03:43:42;98980.69;;;18.61;79.60
39267;BME280;24967;51.154;13.812;2023-05-23T03:46:14;98972.75;;;18.79;78.99
39267;BME280;24967;51.154;13.812;2023-05-23T03:48:55;98971.53;;;18.75;79.14
39267;BME280;24967;51.154;13.812;2023-05-23T03:51:32;98968.63;;;18.76;79.22
39267;BME280;24967;51.154;13.812;2023-05-23T03:54:04;98972.16;;;18.77;79.11
39267;BME280;24967;51.154;13.812;2023-05-23T03:56:40;98979.34;;;18.83;78.90
39267;BME280;24967;51.154;13.812;2023-05-23T03:59:20;98975.28;;;18.99;78.73
39267;BME280;24967;51.154;13.812;2023-05-23T04:01:53;98981.56;;;18.93;78.81
39267;BME280;24967;51.154;13.812;2023-05-23T04:04:31;98980.72;;;18.92;78.99
39267;BME280;24967;51.154;13.812;2023-05-23T04:07:05;98981.34;;;18.94;78.97
39267;BME280;24967;51.154;13.812;2023-05-23T04:09:46;98997.03;;;19.04;78.91
39267;BME280;24967;51.154;13.812;2023-05-23T04:12:24;99001.28;;;19.18;78.45
39267;BME280;24967;51.154;13.812;2023-05-23T04:14:57;99012.44;;;18.90;80.02
39267;BME280;24967;51.154;13.812;2023-05-23T04:17:30;99004.88;;;18.74;81.01
39267;BME280;24967;51.154;13.812;2023-05-23T04:20:04;98989.19;;;18.58;82.11
39267;BME280;24967;51.154;13.812;2023-05-23T04:22:41;99010.28;;;18.61;82.01
39267;BME280;24967;51.154;13.812;2023-05-23T04:25:23;99007.75;;;18.72;81.94
39267;BME280;24967;51.154;13.812;2023-05-23T04:27:53;99014.34;;;18.83;81.11
39267;BME280;24967;51.154;13.812;2023-05-23T04:30:24;99033.03;;;18.78;81.72
39267;BME280;24967;51.154;13.812;2023-05-23T04:33:01;99037.63;;;18.64;83.17
39267;BME280;24967;51.154;13.812;2023-05-23T04:35:41;99039.69;;;18.62;83.77
39267;BME280;24967;51.154;13.812;2023-05-23T04:38:13;99037.13;;;18.36;85.74
39267;BME280;24967;51.154;13.812;2023-05-23T04:40:43;99034.91;;;18.19;87.45
39267;BME280;24967;51.154;13.812;2023-05-23T04:43:17;99043.56;;;18.35;86.61
39267;BME280;24967;51.154;13.812;2023-05-23T04:45:51;99037.63;;;18.19;87.36
39267;BME280;24967;51.154;13.812;2023-05-23T04:48:29;99032.66;;;18.16;87.67
39267;BME280;24967;51.154;13.812;2023-05-23T04:51:01;99032.13;;;18.39;86.86
39267;BME280;24967;51.154;13.812;2023-05-23T04:53:35;99032.91;;;18.53;85.96
39267;BME280;24967;51.154;13.812;2023-05-23T04:56:14;99038.22;;;18.66;85.54
39267;BME280;24967;51.154;13.812;2023-05-23T04:58:45;99044.28;;;18.62;85.46
39267;BME280;24967;51.154;13.812;2023-05-23T05:01:26;99041.41;;;18.50;86.37
39267;BME280;24967;51.154;13.812;2023-05-23T05:03:57;99038.72;;;18.50;86.94
39267;BME280;24967;51.154;13.812;2023-05-23T05:06:27;99051.09;;;18.58;86.64
39267;BME280;24967;51.154;13.812;2023-05-23T05:09:06;99040.28;;;18.77;85.42
39267;BME280;24967;51.154;13.812;2023-05-23T05:11:36;99049.13;;;18.91;84.62
39267;BME280;24967;51.154;13.812;2023-05-23T05:14:09;99055.03;;;19.07;83.72
39267;BME280;24967;51.154;13.812;2023-05-23T05:16:49;99051.03;;;19.16;82.68
39267;BME280;24967;51.154;13.812;2023-05-23T05:19:25;99051.72;;;19.05;83.08
39267;BME280;24967;51.154;13.812;2023-05-23T05:22:13;99045.41;;;19.17;82.59
39267;BME280;24967;51.154;13.812;2023-05-23T05:24:41;99053.50;;;19.17;82.94
39267;BME280;24967;51.154;13.812;2023-05-23T05:27:09;99041.88;;;19.17;83.49
39267;BME280;24967;51.154;13.812;2023-05-23T05:29:42;99048.94;;;18.86;84.59
39267;BME280;24967;51.154;13.812;2023-05-23T05:32:17;99038.44;;;19.03;84.69
39267;BME280;24967;51.154;13.812;2023-05-23T05:34:52;99047.59;;;19.02;85.02
39267;BME280;24967;51.154;13.812;2023-05-23T05:37:21;99042.44;;;19.26;83.81
39267;BME280;24967;51.154;13.812;2023-05-23T05:39:53;99042.44;;;18.94;84.68
39267;BME280;24967;51.154;13.812;2023-05-23T05:45:13;99049.75;;;18.87;87.20
39267;BME280;24967;51.154;13.812;2023-05-23T05:47:40;99049.06;;;18.98;87.11
39267;BME280;24967;51.154;13.812;2023-05-23T05:50:09;99044.59;;;18.85;87.90
39267;BME280;24967;51.154;13.812;2023-05-23T05:52:36;99037.91;;;18.94;87.29
39267;BME280;24967;51.154;13.812;2023-05-23T05:55:05;99039.66;;;18.82;88.40
39267;BME280;24967;51.154;13.812;2023-05-23T05:57:32;99049.84;;;18.73;88.64
39267;BME280;24967;51.154;13.812;2023-05-23T05:59:58;99055.97;;;18.87;87.95
39267;BME280;24967;51.154;13.812;2023-05-23T06:02:25;99067.09;;;18.97;87.56
39267;BME280;24967;51.154;13.812;2023-05-23T06:04:51;99067.00;;;18.79;88.54
39267;BME280;24967;51.154;13.812;2023-05-23T06:07:19;99066.13;;;18.85;88.84
39267;BME280;24967;51.154;13.812;2023-05-23T06:09:46;99066.22;;;19.04;88.66
39267;BME280;24967;51.154;13.812;2023-05-23T06:12:13;99069.66;;;19.17;87.95
39267;BME280;24967;51.154;13.812;2023-05-23T06:14:39;99072.13;;;19.19;87.77
39267;BME280;24967;51.154;13.812;2023-05-23T06:17:06;99067.38;;;18.83;89.46
39267;BME280;24967;51.154;13.812;2023-05-23T06:19:33;99070.66;;;18.91;89.69
39267;BME280;24967;51.154;13.812;2023-05-23T06:22:01;99069.59;;;18.92;89.55
39267;BME280;24967;51.154;13.812;2023-05-23T06:24:29;99084.31;;;18.90;89.51
39267;BME280;24967;51.154;13.812;2023-05-23T06:26:56;99066.38;;;18.77;89.31
39267;BME280;24967;51.154;13.812;2023-05-23T06:29:23;99077.34;;;18.82;89.75
39267;BME280;24967;51.154;13.812;2023-05-23T06:31:49;99069.19;;;18.95;88.24
39267;BME280;24967;51.154;13.812;2023-05-23T06:34:16;99072.69;;;18.96;89.13
39267;BME280;24967;51.154;13.812;2023-05-23T06:36:43;99071.09;;;18.88;89.67
39267;BME280;24967;51.154;13.812;2023-05-23T06:39:11;99083.16;;;18.66;89.06
39267;BME280;24967;51.154;13.812;2023-05-23T06:41:39;99078.59;;;18.66;89.01
39267;BME280;24967;51.154;13.812;2023-05-23T06:44:06;99085.84;;;18.79;87.88
39267;BME280;24967;51.154;13.812;2023-05-23T06:46:33;99080.03;;;18.82;88.21
39267;BME280;24967;51.154;13.812;2023-05-23T06:49:00;99075.91;;;18.80;87.30
39267;BME280;24967;51.154;13.812;2023-05-23T06:51:26;99078.50;;;18.93;86.33
39267;BME280;24967;51.154;13.812;2023-05-23T06:53:53;99083.94;;;18.86;85.46
39267;BME280;24967;51.154;13.812;2023-05-23T06:56:21;99085.66;;;18.74;85.44
39267;BME280;24967;51.154;13.812;2023-05-23T06:58:49;99090.97;;;18.87;85.95
39267;BME280;24967;51.154;13.812;2023-05-23T07:01:16;99089.09;;;18.88;86.05
39267;BME280;24967;51.154;13.812;2023-05-23T07:03:43;99086.38;;;18.94;85.04
39267;BME280;24967;51.154;13.812;2023-05-23T07:06:11;99088.31;;;19.19;84.42
39267;BME280;24967;51.154;13.812;2023-05-23T07:08:38;99085.81;;;19.17;84.54
39267;BME280;24967;51.154;13.812;2023-05-23T07:11:05;99090.19;;;19.12;83.60
39267;BME280;24967;51.154;13.812;2023-05-23T07:13:32;99090.00;;;19.13;83.16
39267;BME280;24967;51.154;13.812;2023-05-23T07:16:00;99098.81;;;19.27;82.22
39267;BME280;24967;51.154;13.812;2023-05-23T07:18:26;99102.00;;;19.49;81.06
39267;BME280;24967;51.154;13.812;2023-05-23T07:21:01;99099.88;;;19.83;79.92
39267;BME280;24967;51.154;13.812;2023-05-23T07:23:31;99101.69;;;19.89;79.89
39267;BME280;24967;51.154;13.812;2023-05-23T07:25:58;99104.66;;;19.81;78.18
39267;BME280;24967;51.154;13.812;2023-05-23T07:28:25;99100.44;;;19.60;78.91
39267;BME280;24967;51.154;13.812;2023-05-23T07:30:51;99109.34;;;19.67;80.14
39267;BME280;24967;51.154;13.812;2023-05-23T07:33:19;99105.34;;;19.76;78.83
39267;BME280;24967;51.154;13.812;2023-05-23T07:35:46;99107.03;;;19.71;79.68
39267;BME280;24967;51.154;13.812;2023-05-23T07:38:13;99106.72;;;19.79;76.79
39267;BME280;24967;51.154;13.812;2023-05-23T07:40:39;99107.09;;;19.57;77.56
39267;BME280;24967;51.154;13.812;2023-05-23T07:43:06;99110.28;;;19.79;77.49
39267;BME280;24967;51.154;13.812;2023-05-23T07:45:32;99102.88;;;19.43;79.47
39267;BME280;24967;51.154;13.812;2023-05-23T07:47:59;99101.66;;;19.64;78.12
39267;BME280;24967;51.154;13.812;2023-05-23T07:50:26;99106.72;;;19.54;76.94
39267;BME280;24967;51.154;13.812;2023-05-23T07:52:53;99102.41;;;19.78;76.17
39267;BME280;24967;51.154;13.812;2023-05-23T07:55:20;99100.69;;;19.83;76.63
39267;BME280;24967;51.154;13.812;2023-05-23T07:57:46;99108.78;;;19.83;76.26
39267;BME280;24967;51.154;13.812;2023-05-23T08:00:13;99096.72;;;19.86;76.17
39267;BME280;24967;51.154;13.812;2023-05-23T08:02:40;99102.81;;;20.00;76.87
39267;BME280;24967;51.154;13.812;2023-05-23T08:05:07;99103.03;;;19.98;76.22
39267;BME280;24967;51.154;13.812;2023-05-23T08:07:36;99104.44;;;20.26;73.13
39267;BME280;24967;51.154;13.812;2023-05-23T08:10:07;99110.50;;;20.21;72.61
39267;BME280;24967;51.154;13.812;2023-05-23T08:12:34;99100.66;;;20.27;73.66
39267;BME280;24967;51.154;13.812;2023-05-23T08:15:00;99107.94;;;20.45;73.79
39267;BME280;24967;51.154;13.812;2023-05-23T08:17:27;99108.94;;;20.50;72.47
39267;BME280;24967;51.154;13.812;2023-05-23T08:19:54;99107.75;;;20.46;70.97
39267;BME280;24967;51.154;13.812;2023-05-23T08:22:20;99105.63;;;20.48;71.77
39267;BME280;24967;51.154;13.812;2023-05-23T08:24:48;99116.41;;;20.11;71.26
39267;BME280;24967;51.154;13.812;2023-05-23T08:27:15;99111.25;;;20.10;72.28
39267;BME280;24967;51.154;13.812;2023-05-23T08:29:41;99114.84;;;20.41;72.04
39267;BME280;24967;51.154;13.812;2023-05-23T08:32:08;99124.50;;;20.30;72.37
39267;BME280;24967;51.154;13.812;2023-05-23T08:34:34;99117.47;;;20.29;71.48
39267;BME280;24967;51.154;13.812;2023-05-23T08:37:01;99122.50;;;20.44;72.22
39267;BME280;24967;51.154;13.812;2023-05-23T08:39:27;99116.22;;;20.68;70.66
39267;BME280;24967;51.154;13.812;2023-05-23T08:41:55;99123.78;;;20.41;69.87
39267;BME280;24967;51.154;13.812;2023-05-23T08:44:22;99120.41;;;20.46;71.92
39267;BME280;24967;51.154;13.812;2023-05-23T08:46:52;99127.56;;;20.58;71.70
39267;BME280;24967;51.154;13.812;2023-05-23T08:49:18;99130.91;;;20.72;72.06
39267;BME280;24967;51.154;13.812;2023-05-23T08:51:51;99126.94;;;20.75;71.68
39267;BME280;24967;51.154;13.812;2023-05-23T08:54:20;99124.13;;;20.70;71.58
39267;BME280;24967;51.154;13.812;2023-05-23T08:56:47;99126.97;;;20.56;72.89
39267;BME280;24967;51.154;13.812;2023-05-23T08:59:15;99127.63;;;20.70;71.43
39267;BME280;24967;51.154;13.812;2023-05-23T09:01:42;99125.38;;;20.49;71.54
39267;BME280;24967;51.154;13.812;2023-05-23T09:04:11;99128.84;;;20.56;68.43
39267;BME280;24967;51.154;13.812;2023-05-23T09:06:39;99128.47;;;20.52;69.53
39267;BME280;24967;51.154;13.812;2023-05-23T09:09:07;99129.81;;;20.62;68.54
39267;BME280;24967;51.154;13.812;2023-05-23T09:11:34;99131.09;;;20.59;68.78
39267;BME280;24967;51.154;13.812;2023-05-23T09:14:03;99141.66;;;20.79;68.55
39267;BME280;24967;51.154;13.812;2023-05-23T09:16:35;99141.66;;;20.79;68.98
39267;BME280;24967;51.154;13.812;2023-05-23T09:19:09;99146.19;;;20.67;69.14
39267;BME280;24967;51.154;13.812;2023-05-23T09:21:36;99134.13;;;20.81;68.79
39267;BME280;24967;51.154;13.812;2023-05-23T09:24:04;99137.97;;;20.92;67.94
39267;BME280;24967;51.154;13.812;2023-05-23T09:26:34;99136.72;;;20.76;66.96
39267;BME280;24967;51.154;13.812;2023-05-23T09:29:04;99146.38;;;20.65;69.49
39267;BME280;24967;51.154;13.812;2023-05-23T09:31:31;99141.53;;;20.55;70.83
39267;BME280;24967;51.154;13.812;2023-05-23T09:33:59;99150.97;;;20.65;71.44
39267;BME280;24967;51.154;13.812;2023-05-23T09:36:27;99155.63;;;20.32;72.78
39267;BME280;24967;51.154;13.812;2023-05-23T09:38:54;99161.28;;;20.31;73.34
39267;BME280;24967;51.154;13.812;2023-05-23T09:41:22;99159.84;;;20.28;73.73
39267;BME280;24967;51.154;13.812;2023-05-23T09:43:49;99162.19;;;20.18;74.16
39267;BME280;24967;51.154;13.812;2023-05-23T09:46:16;99163.97;;;20.06;75.52
39267;BME280;24967;51.154;13.812;2023-05-23T09:48:45;99164.16;;;19.86;75.76
39267;BME280;24967;51.154;13.812;2023-05-23T09:51:14;99169.38;;;20.06;75.59
39267;BME280;24967;51.154;13.812;2023-05-23T09:53:49;99163.38;;;19.79;75.99
39267;BME280;24967;51.154;13.812;2023-05-23T09:56:16;99167.75;;;19.41;77.51
39267;BME280;24967;51.154;13.812;2023-05-23T09:58:46;99176.22;;;19.13;79.10
39267;BME280;24967;51.154;13.812;2023-05-23T10:01:14;99166.00;;;19.22;79.56
39267;BME280;24967;51.154;13.812;2023-05-23T10:03:44;99177.19;;;19.26;78.56
39267;BME280;24967;51.154;13.812;2023-05-23T10:06:20;99175.59;;;19.11;80.03
39267;BME280;24967;51.154;13.812;2023-05-23T10:08:53;99182.84;;;19.11;79.24
39267;BME280;24967;51.154;13.812;2023-05-23T10:14:37;99186.31;;;19.18;78.86
39267;BME280;24967;51.154;13.812;2023-05-23T10:17:09;99177.66;;;19.16;77.33
39267;BME280;24967;51.154;13.812;2023-05-23T10:19:40;99185.88;;;19.28;75.68
39267;BME280;24967;51.154;13.812;2023-05-23T10:22:11;99186.03;;;19.33;72.69
39267;BME280;24967;51.154;13.812;2023-05-23T10:24:40;99185.75;;;19.48;72.39
39267;BME280;24967;51.154;13.812;2023-05-23T10:27:07;99188.47;;;19.03;69.72
39267;BME280;24967;51.154;13.812;2023-05-23T10:29:34;99191.41;;;19.01;69.57
39267;BME280;24967;51.154;13.812;2023-05-23T10:32:02;99195.53;;;18.97;69.19
39267;BME280;24967;51.154;13.812;2023-05-23T10:34:33;99194.13;;;18.94;69.15
39267;BME280;24967;51.154;13.812;2023-05-23T10:37:04;99201.41;;;18.81;69.62
39267;BME280;24967;51.154;13.812;2023-05-23T10:39:39;99199.47;;;19.01;70.28
39267;BME280;24967;51.154;13.812;2023-05-23T10:42:13;99195.66;;;19.22;69.47
39267;BME280;24967;51.154;13.812;2023-05-23T10:44:41;99201.47;;;19.19;69.86
39267;BME280;24967;51.154;13.812;2023-05-23T10:47:08;99205.56;;;19.28;70.77
39267;BME280;24967;51.154;13.812;2023-05-23T10:49:45;99198.31;;;19.29;68.39
39267;BME280;24967;51.154;13.812;2023-05-23T10:52:16;99207.91;;;19.56;69.88
39267;BME280;24967;51.154;13.812;2023-05-23T10:54:46;99204.94;;;19.71;69.63
39267;BME280;24967;51.154;13.812;2023-05-23T10:57:15;99201.63;;;19.69;67.19
39267;BME280;24967;51.154;13.812;2023-05-23T10:59:44;99212.22;;;20.21;67.88
39267;BME280;24967;51.154;13.812;2023-05-23T11:02:13;99198.84;;;20.07;65.33
39267;BME280;24967;51.154;13.812;2023-05-23T11:04:40;99209.13;;;20.17;66.33
39267;BME280;24967;51.154;13.812;2023-05-23T11:07:27;99209.72;;;20.44;66.22
39267;BME280;24967;51.154;13.812;2023-05-23T11:10:08;99209.03;;;20.30;65.40
39267;BME280;24967;51.154;13.812;2023-05-23T11:12:39;99211.53;;;20.50;65.01
39267;BME280;24967;51.154;13.812;2023-05-23T11:15:19;99214.59;;;20.61;65.88
39267;BME280;24967;51.154;13.812;2023-05-23T11:17:53;99218.09;;;20.36;66.61
39267;BME280;24967;51.154;13.812;2023-05-23T11:20:23;99213.66;;;20.23;66.59
39267;BME280;24967;51.154;13.812;2023-05-23T11:22:52;99214.75;;;20.16;66.86
39267;BME280;24967;51.154;13.812;2023-05-23T11:25:38;99219.88;;;20.24;67.68
39267;BME280;24967;51.154;13.812;2023-05-23T11:28:05;99221.56;;;20.18;67.97
39267;BME280;24967;51.154;13.812;2023-05-23T11:30:32;99219.41;;;20.27;67.10
39267;BME280;24967;51.154;13.812;2023-05-23T11:33:06;99217.59;;;20.21;67.49
39267;BME280;24967;51.154;13.812;2023-05-23T11:35:34;99216.91;;;20.32;65.88
39267;BME280;24967;51.154;13.812;2023-05-23T11:38:01;99225.44;;;20.29;67.18
39267;BME280;24967;51.154;13.812;2023-05-23T11:40:31;99214.88;;;20.52;67.45
39267;BME280;24967;51.154;13.812;2023-05-23T11:42:58;99221.50;;;20.50;65.84
39267;BME280;24967;51.154;13.812;2023-05-23T11:45:26;99218.06;;;20.43;66.06
39267;BME280;24967;51.154;13.812;2023-05-23T11:47:53;99222.28;;;20.32;66.10
39267;BME280;24967;51.154;13.812;2023-05-23T11:50:20;99229.13;;;20.09;66.70
39267;BME280;24967;51.154;13.812;2023-05-23T11:52:49;99215.28;;;19.99;67.44
39267;BME280;24967;51.154;13.812;2023-05-23T11:55:17;99221.16;;;20.21;67.12
39267;BME280;24967;51.154;13.812;2023-05-23T11:57:45;99227.69;;;20.32;65.91
39267;BME280;24967;51.154;13.812;2023-05-23T12:00:13;99224.25;;;20.25;66.37
39267;BME280;24967;51.154;13.812;2023-05-23T12:39:42;99229.59;;;20.50;67.02
39267;BME280;24967;51.154;13.812;2023-05-23T12:42:09;99226.59;;;20.65;65.83
39267;BME280;24967;51.154;13.812;2023-05-23T12:44:39;99237.09;;;20.48;66.45
39267;BME280;24967;51.154;13.812;2023-05-23T12:47:06;99223.69;;;20.16;66.16
39267;BME280;24967;51.154;13.812;2023-05-23T12:49:32;99229.16;;;20.03;65.79
39267;BME280;24967;51.154;13.812;2023-05-23T12:51:59;99235.88;;;19.94;65.84
39267;BME280;24967;51.154;13.812;2023-05-23T12:54:25;99228.72;;;19.81;65.87
39267;BME280;24967;51.154;13.812;2023-05-23T12:56:53;99226.56;;;19.64;66.86
39267;BME280;24967;51.154;13.812;2023-05-23T12:59:20;99240.50;;;19.86;67.18
39267;BME280;24967;51.154;13.812;2023-05-23T13:01:46;99242.63;;;19.78;67.01
39267;BME280;24967;51.154;13.812;2023-05-23T13:04:13;99242.31;;;19.54;67.67
39267;BME280;24967;51.154;13.812;2023-05-23T13:06:39;99248.84;;;19.33;68.39
39267;BME280;24967;51.154;13.812;2023-05-23T13:09:06;99245.28;;;19.39;68.33
39267;BME280;24967;51.154;13.812;2023-05-23T13:11:33;99242.72;;;19.19;68.65
39267;BME280;24967;51.154;13.812;2023-05-23T13:14:04;99246.69;;;19.10;68.34
39267;BME280;24967;51.154;13.812;2023-05-23T13:16:32;99256.38;;;19.18;68.32
39267;BME280;24967;51.154;13.812;2023-05-23T13:19:00;99253.09;;;19.16;67.98
39267;BME280;24967;51.154;13.812;2023-05-23T13:21:27;99245.66;;;19.05;67.91
39267;BME280;24967;51.154;13.812;2023-05-23T13:23:54;99249.13;;;19.25;68.63
39267;BME280;24967;51.154;13.812;2023-05-23T13:26:21;99259.19;;;19.43;67.85
39267;BME280;24967;51.154;13.812;2023-05-23T13:28:47;99246.47;;;19.12;67.82
39267;BME280;24967;51.154;13.812;2023-05-23T13:31:15;99252.00;;;19.23;67.70
39267;BME280;24967;51.154;13.812;2023-05-23T13:33:42;99248.41;;;19.36;67.18
39267;BME280;24967;51.154;13.812;2023-05-23T13:36:08;99248.50;;;19.23;67.35
39267;BME280;24967;51.154;13.812;2023-05-23T13:38:36;99250.13;;;19.24;66.35
39267;BME280;24967;51.154;13.812;2023-05-23T13:41:03;99253.09;;;19.16;66.85
39267;BME280;24967;51.154;13.812;2023-05-23T13:43:29;99263.53;;;18.92;68.23
39267;BME280;24967;51.154;13.812;2023-05-23T13:45:56;99263.91;;;18.96;68.14
39267;BME280;24967;51.154;13.812;2023-05-23T13:48:24;99264.59;;;18.78;68.99
39267;BME280;24967;51.154;13.812;2023-05-23T13:50:50;99266.03;;;18.81;69.54
39267;BME280;24967;51.154;13.812;2023-05-23T13:53:17;99260.84;;;18.72;69.32